sensor_id;sensor_type;location;lat;lon;timestamp;P1;durP1;ratioP1;P2;durP2;ratioP2
62362;SDS011;48396;48.426;1.500;2023-03-01T00:01:53;18.63;;;9.77;;
62362;SDS011;48396;48.426;1.500;2023-03-01T00:04:18;18.23;;;8.93;;
62362;SDS011;48396;48.426;1.500;2023-03-01T00:06:44;20.35;;;9.48;;
62362;SDS011;48396;48.426;1.500;2023-03-01T00:09:12;16.75;;;9.10;;
62362;SDS011;48396;48.426;1.500;2023-03-01T00:11:38;17.80;;;9.27;;
62362;SDS011;48396;48.426;1.500;2023-03-01T00:14:04;17.98;;;8.95;;
62362;SDS011;48396;48.426;1.500;2023-03-01T00:16:32;20.08;;;9.38;;
62362;SDS011;48396;48.426;1.500;2023-03-01T00:19:00;18.55;;;9.98;;
62362;SDS011;48396;48.426;1.500;2023-03-01T00:21:27;18.13;;;9.30;;
62362;SDS011;48396;48.426;1.500;2023-03-01T00:23:53;17.38;;;8.68;;
62362;SDS011;48396;48.426;1.500;2023-03-01T00:26:20;18.45;;;9.52;;
62362;SDS011;48396;48.426;1.500;2023-03-01T00:28:47;17.65;;;9.52;;
62362;SDS011;48396;48.426;1.500;2023-03-01T00:31:14;17.58;;;9.23;;
62362;SDS011;48396;48.426;1.500;2023-03-01T00:33:44;20.75;;;9.65;;
62362;SDS011;48396;48.426;1.500;2023-03-01T00:36:12;16.80;;;8.65;;
62362;SDS011;48396;48.426;1.500;2023-03-01T00:38:40;17.73;;;9.55;;
62362;SDS011;48396;48.426;1.500;2023-03-01T00:41:08;20.70;;;9.63;;
62362;SDS011;48396;48.426;1.500;2023-03-01T00:43:35;19.70;;;9.95;;
62362;SDS011;48396;48.426;1.500;2023-03-01T00:46:06;19.52;;;10.18;;
62362;SDS011;48396;48.426;1.500;2023-03-01T00:48:33;20.58;;;9.85;;
62362;SDS011;48396;48.426;1.500;2023-03-01T00:51:10;20.92;;;10.05;;
62362;SDS011;48396;48.426;1.500;2023-03-01T00:53:38;20.67;;;9.93;;
62362;SDS011;48396;48.426;1.500;2023-03-01T00:56:05;18.65;;;9.45;;
62362;SDS011;48396;48.426;1.500;2023-03-01T00:58:32;21.02;;;10.25;;
62362;SDS011;48396;48.426;1.500;2023-03-01T01:00:58;20.38;;;9.80;;
62362;SDS011;48396;48.426;1.500;2023-03-01T01:03:25;18.77;;;9.48;;
62362;SDS011;48396;48.426;1.500;2023-03-01T01:05:51;20.27;;;10.38;;
62362;SDS011;48396;48.426;1.500;2023-03-01T01:08:18;19.40;;;9.82;;
62362;SDS011;48396;48.426;1.500;2023-03-01T01:10:44;17.05;;;8.98;;
62362;SDS011;48396;48.426;1.500;2023-03-01T01:13:11;18.25;;;9.05;;
62362;SDS011;48396;48.426;1.500;2023-03-01T01:15:38;20.92;;;10.63;;
62362;SDS011;48396;48.426;1.500;2023-03-01T01:18:04;17.98;;;9.18;;
62362;SDS011;48396;48.426;1.500;2023-03-01T01:20:30;17.35;;;8.80;;
62362;SDS011;48396;48.426;1.500;2023-03-01T01:22:56;20.50;;;10.30;;
62362;SDS011;48396;48.426;1.500;2023-03-01T01:25:22;18.55;;;9.18;;
62362;SDS011;48396;48.426;1.500;2023-03-01T01:27:50;18.73;;;9.13;;
62362;SDS011;48396;48.426;1.500;2023-03-01T01:30:16;18.13;;;9.45;;
62362;SDS011;48396;48.426;1.500;2023-03-01T01:32:42;18.10;;;9.35;;
62362;SDS011;48396;48.426;1.500;2023-03-01T01:35:08;19.35;;;10.38;;
62362;SDS011;48396;48.426;1.500;2023-03-01T01:37:34;19.02;;;9.63;;
62362;SDS011;48396;48.426;1.500;2023-03-01T01:40:00;20.08;;;10.15;;
62362;SDS011;48396;48.426;1.500;2023-03-01T01:42:29;19.38;;;9.93;;
62362;SDS011;48396;48.426;1.500;2023-03-01T01:48:04;21.02;;;9.80;;
62362;SDS011;48396;48.426;1.500;2023-03-01T01:50:36;21.02;;;9.90;;
62362;SDS011;48396;48.426;1.500;2023-03-01T01:53:08;19.13;;;9.23;;
62362;SDS011;48396;48.426;1.500;2023-03-01T01:55:36;20.38;;;9.85;;
62362;SDS011;48396;48.426;1.500;2023-03-01T01:58:06;20.70;;;9.98;;
62362;SDS011;48396;48.426;1.500;2023-03-01T02:00:35;18.20;;;9.27;;
62362;SDS011;48396;48.426;1.500;2023-03-01T02:03:11;20.00;;;9.48;;
62362;SDS011;48396;48.426;1.500;2023-03-01T02:06:03;19.42;;;9.07;;
62362;SDS011;48396;48.426;1.500;2023-03-01T02:08:31;19.45;;;9.63;;
62362;SDS011;48396;48.426;1.500;2023-03-01T02:11:01;19.10;;;10.07;;
62362;SDS011;48396;48.426;1.500;2023-03-01T02:13:30;20.27;;;9.98;;
62362;SDS011;48396;48.426;1.500;2023-03-01T02:15:57;20.88;;;9.10;;
62362;SDS011;48396;48.426;1.500;2023-03-01T02:18:23;18.85;;;9.15;;
62362;SDS011;48396;48.426;1.500;2023-03-01T02:23:37;21.67;;;9.68;;
62362;SDS011;48396;48.426;1.500;2023-03-01T02:26:16;17.48;;;8.98;;
62362;SDS011;48396;48.426;1.500;2023-03-01T02:28:44;17.70;;;9.07;;
62362;SDS011;48396;48.426;1.500;2023-03-01T02:31:10;18.50;;;9.45;;
62362;SDS011;48396;48.426;1.500;2023-03-01T02:34:00;18.83;;;9.10;;
62362;SDS011;48396;48.426;1.500;2023-03-01T02:36:35;21.38;;;9.30;;
62362;SDS011;48396;48.426;1.500;2023-03-01T02:39:03;17.55;;;8.30;;
62362;SDS011;48396;48.426;1.500;2023-03-01T02:41:34;19.33;;;9.52;;
62362;SDS011;48396;48.426;1.500;2023-03-01T02:44:03;17.58;;;8.93;;
62362;SDS011;48396;48.426;1.500;2023-03-01T02:46:30;16.98;;;9.07;;
62362;SDS011;48396;48.426;1.500;2023-03-01T02:48:57;17.60;;;8.90;;
62362;SDS011;48396;48.426;1.500;2023-03-01T02:51:43;16.60;;;8.68;;
62362;SDS011;48396;48.426;1.500;2023-03-01T02:54:47;18.45;;;8.73;;
62362;SDS011;48396;48.426;1.500;2023-03-01T02:57:18;19.88;;;9.88;;
62362;SDS011;48396;48.426;1.500;2023-03-01T02:59:47;17.42;;;8.60;;
62362;SDS011;48396;48.426;1.500;2023-03-01T03:05:01;17.90;;;9.55;;
62362;SDS011;48396;48.426;1.500;2023-03-01T03:07:32;20.13;;;9.18;;
62362;SDS011;48396;48.426;1.500;2023-03-01T03:09:59;18.83;;;9.07;;
62362;SDS011;48396;48.426;1.500;2023-03-01T03:12:25;19.60;;;9.10;;
62362;SDS011;48396;48.426;1.500;2023-03-01T03:14:51;19.05;;;8.70;;
62362;SDS011;48396;48.426;1.500;2023-03-01T03:17:17;19.88;;;8.77;;
62362;SDS011;48396;48.426;1.500;2023-03-01T03:19:42;18.40;;;8.70;;
62362;SDS011;48396;48.426;1.500;2023-03-01T03:22:11;20.20;;;9.13;;
62362;SDS011;48396;48.426;1.500;2023-03-01T03:24:39;18.60;;;9.52;;
62362;SDS011;48396;48.426;1.500;2023-03-01T03:27:05;19.08;;;9.63;;
62362;SDS011;48396;48.426;1.500;2023-03-01T03:29:32;17.50;;;8.75;;
62362;SDS011;48396;48.426;1.500;2023-03-01T03:31:58;18.63;;;9.95;;
62362;SDS011;48396;48.426;1.500;2023-03-01T03:34:24;18.00;;;8.82;;
62362;SDS011;48396;48.426;1.500;2023-03-01T03:36:53;19.33;;;9.27;;
62362;SDS011;48396;48.426;1.500;2023-03-01T03:39:25;17.40;;;8.55;;
62362;SDS011;48396;48.426;1.500;2023-03-01T03:41:52;19.10;;;8.88;;
62362;SDS011;48396;48.426;1.500;2023-03-01T03:44:19;18.50;;;9.18;;
62362;SDS011;48396;48.426;1.500;2023-03-01T03:46:45;18.08;;;8.95;;
62362;SDS011;48396;48.426;1.500;2023-03-01T03:49:11;19.08;;;9.60;;
62362;SDS011;48396;48.426;1.500;2023-03-01T03:51:37;18.63;;;9.18;;
62362;SDS011;48396;48.426;1.500;2023-03-01T03:54:03;20.17;;;9.70;;
62362;SDS011;48396;48.426;1.500;2023-03-01T03:56:29;20.17;;;9.32;;
62362;SDS011;48396;48.426;1.500;2023-03-01T03:58:54;19.77;;;9.35;;
62362;SDS011;48396;48.426;1.500;2023-03-01T04:01:20;19.88;;;9.40;;
62362;SDS011;48396;48.426;1.500;2023-03-01T04:03:46;19.58;;;9.00;;
62362;SDS011;48396;48.426;1.500;2023-03-01T04:06:14;19.95;;;9.77;;
62362;SDS011;48396;48.426;1.500;2023-03-01T04:08:40;18.88;;;9.38;;
62362;SDS011;48396;48.426;1.500;2023-03-01T04:11:06;20.75;;;9.20;;
62362;SDS011;48396;48.426;1.500;2023-03-01T04:13:51;19.25;;;9.57;;
62362;SDS011;48396;48.426;1.500;2023-03-01T04:16:19;18.48;;;9.55;;
62362;SDS011;48396;48.426;1.500;2023-03-01T04:18:45;19.02;;;9.07;;
62362;SDS011;48396;48.426;1.500;2023-03-01T04:21:11;20.88;;;9.95;;
62362;SDS011;48396;48.426;1.500;2023-03-01T04:23:37;19.35;;;9.77;;
62362;SDS011;48396;48.426;1.500;2023-03-01T04:26:04;19.77;;;9.13;;
62362;SDS011;48396;48.426;1.500;2023-03-01T04:28:31;19.15;;;9.70;;
62362;SDS011;48396;48.426;1.500;2023-03-01T04:31:02;18.92;;;8.98;;
62362;SDS011;48396;48.426;1.500;2023-03-01T04:33:39;21.90;;;9.63;;
62362;SDS011;48396;48.426;1.500;2023-03-01T04:36:10;19.33;;;9.40;;
62362;SDS011;48396;48.426;1.500;2023-03-01T04:38:39;18.33;;;8.93;;
62362;SDS011;48396;48.426;1.500;2023-03-01T04:41:05;20.17;;;9.50;;
62362;SDS011;48396;48.426;1.500;2023-03-01T04:43:32;20.88;;;9.43;;
62362;SDS011;48396;48.426;1.500;2023-03-01T04:46:03;20.08;;;9.80;;
62362;SDS011;48396;48.426;1.500;2023-03-01T04:48:31;18.77;;;8.93;;
62362;SDS011;48396;48.426;1.500;2023-03-01T04:50:58;18.83;;;9.13;;
62362;SDS011;48396;48.426;1.500;2023-03-01T04:53:25;20.33;;;9.40;;
62362;SDS011;48396;48.426;1.500;2023-03-01T04:55:51;18.50;;;9.23;;
62362;SDS011;48396;48.426;1.500;2023-03-01T04:58:18;19.65;;;9.20;;
62362;SDS011;48396;48.426;1.500;2023-03-01T05:00:44;19.58;;;9.07;;
62362;SDS011;48396;48.426;1.500;2023-03-01T05:03:10;19.10;;;9.95;;
62362;SDS011;48396;48.426;1.500;2023-03-01T05:05:37;20.08;;;9.55;;
62362;SDS011;48396;48.426;1.500;2023-03-01T05:08:05;20.88;;;9.80;;
62362;SDS011;48396;48.426;1.500;2023-03-01T05:10:34;18.73;;;9.07;;
62362;SDS011;48396;48.426;1.500;2023-03-01T05:13:03;18.70;;;9.30;;
62362;SDS011;48396;48.426;1.500;2023-03-01T05:15:31;19.58;;;9.13;;
62362;SDS011;48396;48.426;1.500;2023-03-01T05:17:57;20.52;;;9.63;;
62362;SDS011;48396;48.426;1.500;2023-03-01T05:20:25;18.98;;;9.35;;
62362;SDS011;48396;48.426;1.500;2023-03-01T05:22:52;18.45;;;8.88;;
62362;SDS011;48396;48.426;1.500;2023-03-01T05:25:21;20.73;;;9.88;;
62362;SDS011;48396;48.426;1.500;2023-03-01T05:27:46;19.63;;;9.27;;
62362;SDS011;48396;48.426;1.500;2023-03-01T05:30:13;20.33;;;10.05;;
62362;SDS011;48396;48.426;1.500;2023-03-01T05:32:40;20.00;;;9.52;;
62362;SDS011;48396;48.426;1.500;2023-03-01T05:35:09;20.77;;;10.07;;
62362;SDS011;48396;48.426;1.500;2023-03-01T05:37:40;20.63;;;9.57;;
62362;SDS011;48396;48.426;1.500;2023-03-01T05:40:08;18.10;;;8.98;;
62362;SDS011;48396;48.426;1.500;2023-03-01T05:42:42;19.20;;;9.32;;
62362;SDS011;48396;48.426;1.500;2023-03-01T05:45:12;18.08;;;8.88;;
62362;SDS011;48396;48.426;1.500;2023-03-01T05:47:39;19.35;;;9.10;;
62362;SDS011;48396;48.426;1.500;2023-03-01T05:50:30;18.55;;;9.20;;
62362;SDS011;48396;48.426;1.500;2023-03-01T05:52:58;20.77;;;9.40;;
62362;SDS011;48396;48.426;1.500;2023-03-01T05:55:31;20.60;;;9.32;;
62362;SDS011;48396;48.426;1.500;2023-03-01T05:58:10;20.08;;;9.32;;
62362;SDS011;48396;48.426;1.500;2023-03-01T06:00:42;20.15;;;9.40;;
62362;SDS011;48396;48.426;1.500;2023-03-01T06:03:09;21.92;;;9.07;;
62362;SDS011;48396;48.426;1.500;2023-03-01T06:05:37;21.20;;;9.45;;
62362;SDS011;48396;48.426;1.500;2023-03-01T06:08:04;19.95;;;9.43;;
62362;SDS011;48396;48.426;1.500;2023-03-01T06:10:31;20.23;;;10.10;;
62362;SDS011;48396;48.426;1.500;2023-03-01T06:12:57;21.35;;;9.68;;
62362;SDS011;48396;48.426;1.500;2023-03-01T06:15:23;21.42;;;9.57;;
62362;SDS011;48396;48.426;1.500;2023-03-01T06:17:50;20.15;;;9.32;;
62362;SDS011;48396;48.426;1.500;2023-03-01T06:20:20;20.70;;;9.90;;
62362;SDS011;48396;48.426;1.500;2023-03-01T06:22:48;20.15;;;9.18;;
62362;SDS011;48396;48.426;1.500;2023-03-01T06:25:15;21.33;;;10.35;;
62362;SDS011;48396;48.426;1.500;2023-03-01T06:27:43;22.67;;;10.35;;
62362;SDS011;48396;48.426;1.500;2023-03-01T06:30:11;21.38;;;10.00;;
62362;SDS011;48396;48.426;1.500;2023-03-01T06:32:39;20.27;;;9.95;;
62362;SDS011;48396;48.426;1.500;2023-03-01T06:35:08;20.55;;;10.15;;
62362;SDS011;48396;48.426;1.500;2023-03-01T06:37:38;21.05;;;10.27;;
62362;SDS011;48396;48.426;1.500;2023-03-01T06:40:06;20.65;;;9.65;;
62362;SDS011;48396;48.426;1.500;2023-03-01T06:42:36;21.70;;;10.25;;
62362;SDS011;48396;48.426;1.500;2023-03-01T06:45:04;24.38;;;12.02;;
62362;SDS011;48396;48.426;1.500;2023-03-01T06:47:31;23.60;;;10.48;;
62362;SDS011;48396;48.426;1.500;2023-03-01T06:50:01;19.27;;;9.90;;
62362;SDS011;48396;48.426;1.500;2023-03-01T06:52:28;21.83;;;10.52;;
62362;SDS011;48396;48.426;1.500;2023-03-01T06:54:55;22.58;;;10.80;;
62362;SDS011;48396;48.426;1.500;2023-03-01T06:57:23;21.08;;;10.95;;
62362;SDS011;48396;48.426;1.500;2023-03-01T06:59:48;22.73;;;11.10;;
62362;SDS011;48396;48.426;1.500;2023-03-01T07:02:14;23.73;;;11.00;;
62362;SDS011;48396;48.426;1.500;2023-03-01T07:04:41;22.63;;;11.30;;
62362;SDS011;48396;48.426;1.500;2023-03-01T07:07:07;22.90;;;11.50;;
62362;SDS011;48396;48.426;1.500;2023-03-01T07:09:33;22.55;;;11.45;;
62362;SDS011;48396;48.426;1.500;2023-03-01T07:11:59;21.83;;;11.32;;
62362;SDS011;48396;48.426;1.500;2023-03-01T07:14:25;21.58;;;11.25;;
62362;SDS011;48396;48.426;1.500;2023-03-01T07:16:54;24.58;;;11.90;;
62362;SDS011;48396;48.426;1.500;2023-03-01T07:19:21;24.58;;;11.88;;
62362;SDS011;48396;48.426;1.500;2023-03-01T07:21:47;22.25;;;11.88;;
62362;SDS011;48396;48.426;1.500;2023-03-01T07:24:13;24.33;;;11.93;;
62362;SDS011;48396;48.426;1.500;2023-03-01T07:26:39;22.60;;;12.48;;
62362;SDS011;48396;48.426;1.500;2023-03-01T07:29:06;23.27;;;11.55;;
62362;SDS011;48396;48.426;1.500;2023-03-01T07:31:33;21.27;;;11.65;;
62362;SDS011;48396;48.426;1.500;2023-03-01T07:33:59;26.50;;;11.77;;
62362;SDS011;48396;48.426;1.500;2023-03-01T07:36:25;25.95;;;12.82;;
62362;SDS011;48396;48.426;1.500;2023-03-01T07:38:51;26.60;;;13.70;;
62362;SDS011;48396;48.426;1.500;2023-03-01T07:41:16;22.92;;;12.77;;
62362;SDS011;48396;48.426;1.500;2023-03-01T07:43:43;24.98;;;13.05;;
62362;SDS011;48396;48.426;1.500;2023-03-01T07:46:09;23.58;;;12.07;;
62362;SDS011;48396;48.426;1.500;2023-03-01T07:48:35;25.17;;;13.43;;
62362;SDS011;48396;48.426;1.500;2023-03-01T07:51:01;22.15;;;12.15;;
62362;SDS011;48396;48.426;1.500;2023-03-01T07:53:29;24.83;;;12.90;;
62362;SDS011;48396;48.426;1.500;2023-03-01T07:58:40;23.83;;;13.63;;
62362;SDS011;48396;48.426;1.500;2023-03-01T08:01:09;24.38;;;13.70;;
62362;SDS011;48396;48.426;1.500;2023-03-01T08:03:37;26.75;;;14.35;;
62362;SDS011;48396;48.426;1.500;2023-03-01T08:06:04;27.63;;;14.35;;
62362;SDS011;48396;48.426;1.500;2023-03-01T08:11:28;26.02;;;13.95;;
62362;SDS011;48396;48.426;1.500;2023-03-01T08:19:38;26.80;;;14.43;;
62362;SDS011;48396;48.426;1.500;2023-03-01T08:22:04;26.13;;;14.50;;
62362;SDS011;48396;48.426;1.500;2023-03-01T08:24:30;27.90;;;14.55;;
62362;SDS011;48396;48.426;1.500;2023-03-01T08:37:12;28.63;;;14.80;;
62362;SDS011;48396;48.426;1.500;2023-03-01T08:43:06;28.25;;;15.10;;
62362;SDS011;48396;48.426;1.500;2023-03-01T08:52:10;25.23;;;14.80;;
62362;SDS011;48396;48.426;1.500;2023-03-01T08:54:36;26.30;;;15.13;;
62362;SDS011;48396;48.426;1.500;2023-03-01T08:57:05;27.60;;;15.65;;
62362;SDS011;48396;48.426;1.500;2023-03-01T08:59:31;27.95;;;15.80;;
62362;SDS011;48396;48.426;1.500;2023-03-01T09:02:02;26.17;;;15.13;;
62362;SDS011;48396;48.426;1.500;2023-03-01T09:04:35;27.35;;;15.35;;
62362;SDS011;48396;48.426;1.500;2023-03-01T09:07:01;26.90;;;14.88;;
62362;SDS011;48396;48.426;1.500;2023-03-01T09:09:27;28.45;;;15.75;;
62362;SDS011;48396;48.426;1.500;2023-03-01T09:11:53;28.98;;;16.08;;
62362;SDS011;48396;48.426;1.500;2023-03-01T09:14:19;27.23;;;15.38;;
62362;SDS011;48396;48.426;1.500;2023-03-01T09:16:45;26.00;;;15.38;;
62362;SDS011;48396;48.426;1.500;2023-03-01T09:19:11;26.90;;;15.75;;
62362;SDS011;48396;48.426;1.500;2023-03-01T09:21:37;28.45;;;15.48;;
62362;SDS011;48396;48.426;1.500;2023-03-01T09:24:03;28.90;;;15.93;;
62362;SDS011;48396;48.426;1.500;2023-03-01T09:26:29;28.83;;;15.98;;
62362;SDS011;48396;48.426;1.500;2023-03-01T09:28:55;26.95;;;15.63;;
62362;SDS011;48396;48.426;1.500;2023-03-01T09:31:22;28.60;;;15.80;;
62362;SDS011;48396;48.426;1.500;2023-03-01T09:33:50;28.85;;;16.48;;
62362;SDS011;48396;48.426;1.500;2023-03-01T09:36:18;27.48;;;15.05;;
62362;SDS011;48396;48.426;1.500;2023-03-01T09:38:46;26.42;;;14.95;;
62362;SDS011;48396;48.426;1.500;2023-03-01T09:44:17;26.70;;;14.70;;
62362;SDS011;48396;48.426;1.500;2023-03-01T09:46:52;28.15;;;15.85;;
62362;SDS011;48396;48.426;1.500;2023-03-01T09:49:22;25.85;;;15.18;;
62362;SDS011;48396;48.426;1.500;2023-03-01T09:54:38;28.33;;;15.02;;
62362;SDS011;48396;48.426;1.500;2023-03-01T10:04:56;24.27;;;13.57;;
62362;SDS011;48396;48.426;1.500;2023-03-01T10:10:16;23.25;;;12.70;;
62362;SDS011;48396;48.426;1.500;2023-03-01T10:12:56;24.35;;;12.48;;
62362;SDS011;48396;48.426;1.500;2023-03-01T10:15:32;23.20;;;11.98;;
62362;SDS011;48396;48.426;1.500;2023-03-01T10:18:09;24.25;;;13.02;;
62362;SDS011;48396;48.426;1.500;2023-03-01T10:20:54;25.35;;;12.65;;
62362;SDS011;48396;48.426;1.500;2023-03-01T10:23:28;22.50;;;11.90;;
62362;SDS011;48396;48.426;1.500;2023-03-01T10:26:17;23.65;;;12.65;;
62362;SDS011;48396;48.426;1.500;2023-03-01T10:31:46;23.42;;;12.60;;
62362;SDS011;48396;48.426;1.500;2023-03-01T10:36:43;24.38;;;12.77;;
62362;SDS011;48396;48.426;1.500;2023-03-01T10:39:20;24.45;;;13.05;;
62362;SDS011;48396;48.426;1.500;2023-03-01T10:41:58;23.27;;;12.52;;
62362;SDS011;48396;48.426;1.500;2023-03-01T10:47:13;24.85;;;13.90;;
62362;SDS011;48396;48.426;1.500;2023-03-01T10:49:55;24.42;;;13.95;;
62362;SDS011;48396;48.426;1.500;2023-03-01T10:52:27;24.48;;;13.77;;
62362;SDS011;48396;48.426;1.500;2023-03-01T10:55:04;24.63;;;13.35;;
62362;SDS011;48396;48.426;1.500;2023-03-01T10:57:45;23.70;;;12.77;;
62362;SDS011;48396;48.426;1.500;2023-03-01T11:00:16;25.42;;;13.07;;
62362;SDS011;48396;48.426;1.500;2023-03-01T11:05:25;23.63;;;13.38;;
62362;SDS011;48396;48.426;1.500;2023-03-01T11:07:57;23.55;;;12.68;;
62362;SDS011;48396;48.426;1.500;2023-03-01T11:10:27;23.50;;;13.20;;
62362;SDS011;48396;48.426;1.500;2023-03-01T11:13:05;25.40;;;14.35;;
62362;SDS011;48396;48.426;1.500;2023-03-01T11:15:39;22.95;;;12.70;;
62362;SDS011;48396;48.426;1.500;2023-03-01T11:18:17;22.90;;;13.32;;
62362;SDS011;48396;48.426;1.500;2023-03-01T11:20:49;24.00;;;13.07;;
62362;SDS011;48396;48.426;1.500;2023-03-01T11:23:19;23.58;;;13.73;;
62362;SDS011;48396;48.426;1.500;2023-03-01T11:25:56;25.40;;;13.55;;
62362;SDS011;48396;48.426;1.500;2023-03-01T11:28:32;25.95;;;13.98;;
62362;SDS011;48396;48.426;1.500;2023-03-01T11:33:35;24.77;;;13.70;;
62362;SDS011;48396;48.426;1.500;2023-03-01T11:36:31;22.05;;;12.45;;
62362;SDS011;48396;48.426;1.500;2023-03-01T11:39:10;24.20;;;12.65;;
62362;SDS011;48396;48.426;1.500;2023-03-01T11:41:52;25.27;;;13.15;;
62362;SDS011;48396;48.426;1.500;2023-03-01T11:44:30;23.83;;;13.25;;
62362;SDS011;48396;48.426;1.500;2023-03-01T11:47:07;25.42;;;14.13;;
62362;SDS011;48396;48.426;1.500;2023-03-01T11:55:13;23.45;;;13.43;;
62362;SDS011;48396;48.426;1.500;2023-03-01T11:57:48;24.65;;;13.30;;
62362;SDS011;48396;48.426;1.500;2023-03-01T12:09:07;23.67;;;12.90;;
62362;SDS011;48396;48.426;1.500;2023-03-01T12:20:42;25.48;;;13.20;;
62362;SDS011;48396;48.426;1.500;2023-03-01T12:26:34;24.33;;;13.05;;
62362;SDS011;48396;48.426;1.500;2023-03-01T12:29:09;23.98;;;12.95;;
62362;SDS011;48396;48.426;1.500;2023-03-01T12:34:38;22.05;;;12.18;;
62362;SDS011;48396;48.426;1.500;2023-03-01T12:37:34;22.40;;;11.60;;
62362;SDS011;48396;48.426;1.500;2023-03-01T12:50:28;24.08;;;13.15;;
62362;SDS011;48396;48.426;1.500;2023-03-01T12:53:04;23.90;;;13.35;;
62362;SDS011;48396;48.426;1.500;2023-03-01T12:55:34;23.05;;;13.60;;
62362;SDS011;48396;48.426;1.500;2023-03-01T13:01:03;24.17;;;13.55;;
62362;SDS011;48396;48.426;1.500;2023-03-01T13:08:54;25.08;;;13.88;;
62362;SDS011;48396;48.426;1.500;2023-03-01T13:11:29;25.20;;;13.77;;
62362;SDS011;48396;48.426;1.500;2023-03-01T13:16:49;22.63;;;12.25;;
62362;SDS011;48396;48.426;1.500;2023-03-01T13:19:18;22.88;;;14.00;;
62362;SDS011;48396;48.426;1.500;2023-03-01T13:21:50;23.42;;;13.32;;
62362;SDS011;48396;48.426;1.500;2023-03-01T13:27:10;25.63;;;13.70;;
62362;SDS011;48396;48.426;1.500;2023-03-01T13:32:24;24.45;;;13.85;;
62362;SDS011;48396;48.426;1.500;2023-03-01T13:34:53;26.08;;;13.25;;
62362;SDS011;48396;48.426;1.500;2023-03-01T13:37:25;24.55;;;12.80;;
62362;SDS011;48396;48.426;1.500;2023-03-01T13:39:54;25.55;;;14.68;;
62362;SDS011;48396;48.426;1.500;2023-03-01T13:42:41;24.65;;;13.88;;
62362;SDS011;48396;48.426;1.500;2023-03-01T13:45:19;22.88;;;12.43;;
62362;SDS011;48396;48.426;1.500;2023-03-01T13:47:56;23.88;;;12.88;;
62362;SDS011;48396;48.426;1.500;2023-03-01T13:50:27;23.65;;;12.45;;
62362;SDS011;48396;48.426;1.500;2023-03-01T13:53:00;22.33;;;12.43;;
62362;SDS011;48396;48.426;1.500;2023-03-01T13:55:34;23.88;;;13.20;;
62362;SDS011;48396;48.426;1.500;2023-03-01T13:58:23;23.80;;;12.85;;
62362;SDS011;48396;48.426;1.500;2023-03-01T14:00:55;22.83;;;12.65;;
62362;SDS011;48396;48.426;1.500;2023-03-01T14:03:25;22.40;;;13.07;;
62362;SDS011;48396;48.426;1.500;2023-03-01T14:08:34;21.42;;;12.18;;
62362;SDS011;48396;48.426;1.500;2023-03-01T14:13:58;22.85;;;12.32;;
62362;SDS011;48396;48.426;1.500;2023-03-01T14:19:24;21.95;;;12.77;;
62362;SDS011;48396;48.426;1.500;2023-03-01T14:24:48;23.35;;;12.77;;
62362;SDS011;48396;48.426;1.500;2023-03-01T14:27:19;24.02;;;12.75;;
62362;SDS011;48396;48.426;1.500;2023-03-01T14:29:53;23.70;;;12.73;;
62362;SDS011;48396;48.426;1.500;2023-03-01T14:32:23;22.40;;;13.05;;
62362;SDS011;48396;48.426;1.500;2023-03-01T14:34:51;23.33;;;12.93;;
62362;SDS011;48396;48.426;1.500;2023-03-01T14:39:46;20.83;;;11.57;;
62362;SDS011;48396;48.426;1.500;2023-03-01T14:42:13;23.63;;;12.50;;
62362;SDS011;48396;48.426;1.500;2023-03-01T14:44:41;22.80;;;12.20;;
62362;SDS011;48396;48.426;1.500;2023-03-01T14:47:15;24.25;;;12.35;;
62362;SDS011;48396;48.426;1.500;2023-03-01T14:49:49;22.73;;;11.98;;
62362;SDS011;48396;48.426;1.500;2023-03-01T14:52:21;22.70;;;12.00;;
62362;SDS011;48396;48.426;1.500;2023-03-01T14:54:53;20.98;;;12.13;;
62362;SDS011;48396;48.426;1.500;2023-03-01T14:57:21;21.05;;;11.75;;
62362;SDS011;48396;48.426;1.500;2023-03-01T14:59:52;23.30;;;12.88;;
62362;SDS011;48396;48.426;1.500;2023-03-01T15:02:20;22.20;;;12.57;;
62362;SDS011;48396;48.426;1.500;2023-03-01T15:04:52;21.45;;;11.57;;
62362;SDS011;48396;48.426;1.500;2023-03-01T15:07:26;22.73;;;12.90;;
62362;SDS011;48396;48.426;1.500;2023-03-01T15:09:55;20.58;;;11.77;;
62362;SDS011;48396;48.426;1.500;2023-03-01T15:14:59;22.05;;;12.38;;
62362;SDS011;48396;48.426;1.500;2023-03-01T15:17:37;20.90;;;12.27;;
62362;SDS011;48396;48.426;1.500;2023-03-01T15:20:05;21.23;;;12.35;;
62362;SDS011;48396;48.426;1.500;2023-03-01T15:22:43;22.05;;;12.52;;
62362;SDS011;48396;48.426;1.500;2023-03-01T15:25:19;21.23;;;12.20;;
62362;SDS011;48396;48.426;1.500;2023-03-01T15:27:48;23.55;;;12.60;;
62362;SDS011;48396;48.426;1.500;2023-03-01T15:38:25;22.15;;;11.65;;
62362;SDS011;48396;48.426;1.500;2023-03-01T15:40:58;22.63;;;12.65;;
62362;SDS011;48396;48.426;1.500;2023-03-01T15:43:38;20.92;;;11.15;;
62362;SDS011;48396;48.426;1.500;2023-03-01T15:46:28;23.52;;;12.68;;
62362;SDS011;48396;48.426;1.500;2023-03-01T15:49:01;20.88;;;11.52;;
62362;SDS011;48396;48.426;1.500;2023-03-01T15:51:31;21.48;;;11.75;;
62362;SDS011;48396;48.426;1.500;2023-03-01T15:54:00;23.10;;;12.63;;
62362;SDS011;48396;48.426;1.500;2023-03-01T15:56:29;23.05;;;12.80;;
62362;SDS011;48396;48.426;1.500;2023-03-01T15:58:59;21.88;;;12.40;;
62362;SDS011;48396;48.426;1.500;2023-03-01T16:01:27;23.00;;;12.55;;
62362;SDS011;48396;48.426;1.500;2023-03-01T16:03:53;22.48;;;12.25;;
62362;SDS011;48396;48.426;1.500;2023-03-01T16:06:19;21.70;;;12.48;;
62362;SDS011;48396;48.426;1.500;2023-03-01T16:08:45;23.58;;;12.52;;
62362;SDS011;48396;48.426;1.500;2023-03-01T16:11:13;21.02;;;12.32;;
62362;SDS011;48396;48.426;1.500;2023-03-01T16:13:43;23.60;;;12.65;;
62362;SDS011;48396;48.426;1.500;2023-03-01T16:16:10;21.63;;;12.25;;
62362;SDS011;48396;48.426;1.500;2023-03-01T16:18:47;23.90;;;12.75;;
62362;SDS011;48396;48.426;1.500;2023-03-01T16:21:20;21.88;;;12.40;;
62362;SDS011;48396;48.426;1.500;2023-03-01T16:23:48;21.67;;;12.48;;
62362;SDS011;48396;48.426;1.500;2023-03-01T16:26:14;23.15;;;12.85;;
62362;SDS011;48396;48.426;1.500;2023-03-01T16:28:40;21.30;;;12.63;;
62362;SDS011;48396;48.426;1.500;2023-03-01T16:31:07;24.52;;;13.05;;
62362;SDS011;48396;48.426;1.500;2023-03-01T16:33:33;22.27;;;12.75;;
62362;SDS011;48396;48.426;1.500;2023-03-01T16:36:21;22.73;;;13.18;;
62362;SDS011;48396;48.426;1.500;2023-03-01T16:38:48;24.52;;;13.52;;
62362;SDS011;48396;48.426;1.500;2023-03-01T16:41:16;23.77;;;13.15;;
62362;SDS011;48396;48.426;1.500;2023-03-01T16:43:44;22.65;;;13.30;;
62362;SDS011;48396;48.426;1.500;2023-03-01T16:46:27;24.35;;;13.27;;
62362;SDS011;48396;48.426;1.500;2023-03-01T16:48:54;23.52;;;13.98;;
62362;SDS011;48396;48.426;1.500;2023-03-01T16:51:20;26.02;;;14.75;;
62362;SDS011;48396;48.426;1.500;2023-03-01T16:53:47;27.98;;;15.07;;
62362;SDS011;48396;48.426;1.500;2023-03-01T16:56:14;29.90;;;18.70;;
62362;SDS011;48396;48.426;1.500;2023-03-01T16:58:41;33.83;;;20.13;;
62362;SDS011;48396;48.426;1.500;2023-03-01T17:01:09;33.88;;;20.80;;
62362;SDS011;48396;48.426;1.500;2023-03-01T17:03:36;37.10;;;22.15;;
62362;SDS011;48396;48.426;1.500;2023-03-01T17:06:03;35.33;;;20.60;;
62362;SDS011;48396;48.426;1.500;2023-03-01T17:08:30;30.40;;;20.63;;
62362;SDS011;48396;48.426;1.500;2023-03-01T17:11:01;23.67;;;14.02;;
62362;SDS011;48396;48.426;1.500;2023-03-01T17:13:31;25.85;;;14.48;;